Time;durP1;ratioP1;P1;durP2;ratioP2;P2;SDS_P1;SDS_P2;PMS_P1;PMS_P2;Temp;Humidity;BMP_temperature;BMP_pressure;BME280_temperature;BME280_humidity;BME280_pressure;Samples;Min_cycle;Max_cycle;Signal;HPM_P1;HPM_P2
2023/05/07 00:00:08;;;;;;;1.80;1.37;;;18.20;83.80;;;;;;5093428;28;20455;-49
2023/05/07 00:02:37;;;;;;;2.17;1.53;;;18.20;83.90;;;;;;5104409;28;20675;-50
2023/05/07 00:05:07;;;;;;;2.40;1.60;;;18.20;83.90;;;;;;5087245;28;21003;-51
2023/05/07 00:07:36;;;;;;;3.03;1.87;;;18.20;83.90;;;;;;5096037;28;20457;-50
2023/05/07 00:10:06;;;;;;;3.93;1.73;;;18.20;83.90;;;;;;5076960;28;20418;-49
2023/05/07 00:12:35;;;;;;;1.87;1.37;;;18.20;84.00;;;;;;5086744;28;20450;-49
2023/05/07 00:15:09;;;;;;;2.57;1.30;;;18.20;84.00;;;;;;5085628;28;20445;-49
2023/05/07 00:17:38;;;;;;;1.87;1.43;;;18.20;83.80;;;;;;5110275;27;20472;-52
2023/05/07 00:20:08;;;;;;;2.27;1.83;;;18.20;84.00;;;;;;5092349;28;20510;-50
2023/05/07 00:22:37;;;;;;;2.20;1.60;;;18.20;84.00;;;;;;5092108;28;20530;-50
2023/05/07 00:25:07;;;;;;;2.10;1.50;;;18.20;84.00;;;;;;5087700;28;20449;-49
2023/05/07 00:27:35;;;;;;;1.87;1.40;;;18.20;84.00;;;;;;5095464;28;20521;-49
2023/05/07 00:30:04;;;;;;;1.97;1.63;;;18.20;83.90;;;;;;5105439;28;20440;-49
2023/05/07 00:32:34;;;;;;;1.53;1.17;;;18.10;83.80;;;;;;5087153;28;20471;-50
2023/05/07 00:35:03;;;;;;;1.67;1.33;;;18.20;83.90;;;;;;5100353;28;20520;-50
2023/05/07 00:37:31;;;;;;;2.20;1.33;;;18.10;83.80;;;;;;5086158;28;20589;-49
2023/05/07 00:40:00;;;;;;;2.23;1.40;;;18.20;83.80;;;;;;5087138;28;20540;-50
2023/05/07 00:42:29;;;;;;;1.90;1.30;;;18.10;83.80;;;;;;5084558;28;20652;-48
2023/05/07 00:44:57;;;;;;;1.57;1.40;;;18.10;83.70;;;;;;5079205;28;20512;-50
2023/05/07 00:47:26;;;;;;;2.07;1.30;;;18.10;83.80;;;;;;5086833;28;20460;-49
2023/05/07 00:49:58;;;;;;;1.73;1.60;;;18.10;84.00;;;;;;5082762;28;20935;-49
2023/05/07 00:52:27;;;;;;;1.93;1.57;;;18.10;83.80;;;;;;5087474;28;20502;-50
2023/05/07 00:54:56;;;;;;;1.97;1.50;;;18.10;83.90;;;;;;5084623;28;20436;-49
2023/05/07 00:57:26;;;;;;;1.40;1.10;;;18.10;83.80;;;;;;5081108;28;20983;-49
2023/05/07 00:59:54;;;;;;;2.50;0.93;;;18.10;83.90;;;;;;5088102;28;20441;-49
2023/05/07 01:02:26;;;;;;;2.10;1.30;;;18.10;83.90;;;;;;5085559;28;20502;-52
2023/05/07 01:04:56;;;;;;;3.43;1.50;;;18.10;83.90;;;;;;5084202;28;20434;-49
2023/05/07 01:07:25;;;;;;;2.73;1.87;;;18.10;83.90;;;;;;5090307;28;20576;-51
2023/05/07 01:09:54;;;;;;;2.77;1.80;;;18.10;84.00;;;;;;5080438;28;20477;-49
2023/05/07 01:12:23;;;;;;;1.43;1.13;;;18.10;83.90;;;;;;5105122;28;20426;-49
2023/05/07 01:14:52;;;;;;;2.40;1.40;;;18.10;83.90;;;;;;5081613;28;20464;-50
2023/05/07 01:17:21;;;;;;;2.80;1.60;;;18.10;84.00;;;;;;5091854;28;20514;-50
2023/05/07 01:19:52;;;;;;;2.17;1.57;;;18.10;84.00;;;;;;5093228;28;20446;-49
2023/05/07 01:22:31;;;;;;;2.40;1.90;;;18.10;83.90;;;;;;5086332;28;20517;-49
2023/05/07 01:25:01;;;;;;;2.10;1.50;;;18.10;84.00;;;;;;5081879;28;21016;-50
2023/05/07 01:27:33;;;;;;;2.63;1.50;;;18.10;84.00;;;;;;5081498;28;20474;-49
2023/05/07 01:30:02;;;;;;;3.20;1.70;;;18.10;84.00;;;;;;5082264;28;20451;-50
2023/05/07 01:32:36;;;;;;;1.47;1.33;;;18.10;84.00;;;;;;5088647;28;20952;-49
2023/05/07 01:35:08;;;;;;;2.13;1.77;;;18.10;84.00;;;;;;5087390;28;20447;-50
2023/05/07 01:37:39;;;;;;;1.67;1.57;;;18.10;84.00;;;;;;5088038;28;20477;-50
2023/05/07 01:40:09;;;;;;;4.23;1.80;;;18.10;84.00;;;;;;5061811;28;20803;-49
2023/05/07 01:42:39;;;;;;;4.00;1.40;;;18.00;83.90;;;;;;5108396;28;20463;-51
2023/05/07 01:45:08;;;;;;;1.97;1.40;;;18.00;83.90;;;;;;5085832;28;20515;-48
2023/05/07 01:47:38;;;;;;;3.73;1.50;;;18.00;83.80;;;;;;5088229;28;20465;-49
2023/05/07 01:50:09;;;;;;;2.20;1.60;;;18.00;83.90;;;;;;5093178;28;20934;-50
2023/05/07 01:52:40;;;;;;;2.00;1.33;;;18.00;83.90;;;;;;5086703;28;20499;-49
2023/05/07 01:55:09;;;;;;;1.73;1.37;;;18.00;83.90;;;;;;5098283;28;20489;-50
2023/05/07 01:57:37;;;;;;;2.27;1.67;;;18.00;83.90;;;;;;5092349;28;20869;-49
2023/05/07 02:00:08;;;;;;;3.43;1.20;;;18.00;83.90;;;;;;5087948;28;20455;-50
2023/05/07 02:02:45;;;;;;;1.47;1.20;;;18.00;83.90;;;;;;5079784;28;20514;-49
2023/05/07 02:05:34;;;;;;;1.80;1.40;;;18.00;83.90;;;;;;5095281;28;20461;-49
2023/05/07 02:08:10;;;;;;;1.80;1.53;;;18.00;83.80;;;;;;5087032;28;20533;-50
2023/05/07 02:10:38;;;;;;;2.33;1.60;;;18.00;83.80;;;;;;5084225;28;20529;-50
2023/05/07 02:13:08;;;;;;;1.50;1.20;;;18.00;83.70;;;;;;5073655;28;20471;-49
2023/05/07 02:15:36;;;;;;;2.13;1.63;;;18.00;83.70;;;;;;5074345;28;20935;-51
2023/05/07 02:18:07;;;;;;;2.13;1.37;;;18.00;83.70;;;;;;5081414;28;20564;-50
2023/05/07 02:20:35;;;;;;;2.27;1.57;;;18.00;83.70;;;;;;5100137;28;20534;-49
2023/05/07 02:23:04;;;;;;;2.60;1.60;;;18.00;83.60;;;;;;5086553;28;20480;-49
2023/05/07 02:25:34;;;;;;;1.80;1.37;;;18.00;83.50;;;;;;5082599;28;20433;-49
2023/05/07 02:28:02;;;;;;;1.50;1.20;;;18.00;83.50;;;;;;5091774;28;21001;-50
2023/05/07 02:30:51;;;;;;;2.00;1.73;;;18.00;83.60;;;;;;5104443;28;20987;-49
2023/05/07 02:33:21;;;;;;;2.30;1.53;;;18.00;83.50;;;;;;5091262;28;20479;-51
2023/05/07 02:35:51;;;;;;;2.33;1.20;;;17.90;83.30;;;;;;5099098;28;20519;-50
2023/05/07 02:38:20;;;;;;;2.03;1.33;;;17.90;83.40;;;;;;5062212;28;20481;-48
2023/05/07 02:40:50;;;;;;;1.80;1.37;;;18.00;83.50;;;;;;5083292;28;20446;-50
2023/05/07 02:43:18;;;;;;;2.00;1.43;;;17.90;83.40;;;;;;5089726;28;20497;-50
2023/05/07 02:45:49;;;;;;;5.17;1.57;;;17.90;83.40;;;;;;5100656;28;21038;-51
2023/05/07 02:48:17;;;;;;;2.70;1.40;;;17.90;83.40;;;;;;5085964;28;20485;-49
2023/05/07 02:50:46;;;;;;;1.80;1.37;;;17.90;83.40;;;;;;5090751;28;20444;-51
2023/05/07 02:53:15;;;;;;;2.50;1.80;;;17.90;83.40;;;;;;5083131;28;20515;-49
2023/05/07 02:55:44;;;;;;;2.53;1.60;;;17.90;83.40;;;;;;5085262;28;20421;-49
2023/05/07 02:58:14;;;;;;;1.70;1.30;;;17.90;83.50;;;;;;5074232;28;20529;-50
2023/05/07 03:00:43;;;;;;;2.80;1.63;;;17.90;83.50;;;;;;5074914;28;20846;-50
2023/05/07 03:03:22;;;;;;;2.60;1.50;;;17.90;83.60;;;;;;5088364;28;20584;-51
2023/05/07 03:05:51;;;;;;;1.90;1.33;;;17.90;83.60;;;;;;5084857;28;20954;-49
2023/05/07 03:08:19;;;;;;;2.10;1.90;;;17.90;83.70;;;;;;5088982;28;20480;-49
2023/05/07 03:10:48;;;;;;;1.80;1.70;;;17.90;83.70;;;;;;5081855;28;20447;-51
2023/05/07 03:13:18;;;;;;;2.60;1.90;;;17.80;83.70;;;;;;5088729;28;20464;-50
2023/05/07 03:15:46;;;;;;;1.70;1.47;;;17.90;83.80;;;;;;5089351;28;20478;-50
2023/05/07 03:18:15;;;;;;;2.30;1.50;;;17.90;83.90;;;;;;5083599;28;20488;-49
2023/05/07 03:20:43;;;;;;;1.70;1.27;;;17.80;83.90;;;;;;5090097;28;20971;-52
2023/05/07 03:23:12;;;;;;;2.23;1.67;;;17.90;83.90;;;;;;5093892;28;20478;-53
2023/05/07 03:25:40;;;;;;;1.93;1.77;;;17.80;83.80;;;;;;5104556;28;20946;-50
2023/05/07 03:28:09;;;;;;;1.70;1.30;;;17.80;83.90;;;;;;5092233;28;21016;-48
2023/05/07 03:30:45;;;;;;;2.80;1.70;;;17.90;83.90;;;;;;5085914;28;20432;-49
2023/05/07 03:33:13;;;;;;;2.27;1.33;;;17.90;83.90;;;;;;5091562;28;20998;-49
2023/05/07 03:35:42;;;;;;;2.20;1.37;;;17.90;84.10;;;;;;5090646;28;21010;-50
2023/05/07 03:38:12;;;;;;;2.33;1.47;;;17.90;83.90;;;;;;5080022;28;20468;-49
2023/05/07 03:40:40;;;;;;;2.00;1.67;;;17.80;83.80;;;;;;5110025;27;20493;-48
2023/05/07 03:43:12;;;;;;;1.83;1.10;;;17.90;84.00;;;;;;5094581;28;20867;-49
2023/05/07 03:45:47;;;;;;;1.70;1.17;;;17.80;83.80;;;;;;5090173;28;20483;-49
2023/05/07 03:48:26;;;;;;;1.57;1.33;;;17.80;83.80;;;;;;5088323;28;20480;-48
2023/05/07 03:50:57;;;;;;;2.53;1.50;;;17.80;83.90;;;;;;5091586;28;20485;-49
2023/05/07 03:53:30;;;;;;;1.93;1.50;;;17.80;83.80;;;;;;5083385;28;20504;-48
2023/05/07 03:55:58;;;;;;;1.63;1.37;;;17.80;83.90;;;;;;5084723;28;20817;-48
2023/05/07 03:58:28;;;;;;;2.30;1.40;;;17.80;83.90;;;;;;5083433;28;20458;-47
2023/05/07 04:01:01;;;;;;;1.57;1.43;;;17.80;83.90;;;;;;5090823;28;20445;-48
2023/05/07 04:03:30;;;;;;;1.93;1.50;;;17.80;83.90;;;;;;5084874;28;20466;-49
2023/05/07 04:06:00;;;;;;;2.00;1.80;;;17.80;83.90;;;;;;5092777;28;21015;-50
2023/05/07 04:08:29;;;;;;;1.97;1.50;;;17.80;84.00;;;;;;5109100;28;20465;-49
2023/05/07 04:10:57;;;;;;;2.73;1.70;;;17.80;84.10;;;;;;5085180;28;20864;-48
2023/05/07 04:13:31;;;;;;;1.63;1.53;;;17.80;84.00;;;;;;5087403;28;20464;-48
2023/05/07 04:16:03;;;;;;;2.20;1.50;;;17.80;83.90;;;;;;5092231;28;20461;-49
2023/05/07 04:18:32;;;;;;;3.63;1.60;;;17.80;83.90;;;;;;5092501;28;20610;-50
2023/05/07 04:21:01;;;;;;;2.23;1.40;;;17.80;84.00;;;;;;5086689;28;20491;-49
2023/05/07 04:23:29;;;;;;;1.80;1.37;;;17.80;84.00;;;;;;5090588;28;20477;-49
2023/05/07 04:26:01;;;;;;;1.43;1.27;;;17.80;83.90;;;;;;5089313;28;20453;-48
2023/05/07 04:28:39;;;;;;;3.20;1.83;;;17.80;84.00;;;;;;5096233;28;20575;-48
2023/05/07 04:31:09;;;;;;;1.70;1.40;;;17.80;84.10;;;;;;5108923;28;20532;-50
2023/05/07 04:33:39;;;;;;;1.77;1.40;;;17.80;84.00;;;;;;5101143;28;20480;-52
2023/05/07 04:36:10;;;;;;;1.60;1.30;;;17.80;84.10;;;;;;5103594;28;20991;-48
2023/05/07 04:38:46;;;;;;;1.60;1.50;;;17.80;84.00;;;;;;5088308;28;20479;-50
2023/05/07 04:41:16;;;;;;;1.63;1.07;;;17.80;84.10;;;;;;5087056;28;20432;-48
2023/05/07 04:43:45;;;;;;;1.70;1.30;;;17.80;84.00;;;;;;5082065;28;20479;-48
2023/05/07 04:46:17;;;;;;;1.83;1.23;;;17.80;84.10;;;;;;5105464;28;20996;-49
2023/05/07 04:48:46;;;;;;;1.47;1.17;;;17.80;84.10;;;;;;5085747;28;20505;-51
2023/05/07 04:51:14;;;;;;;2.00;1.60;;;17.80;84.00;;;;;;5094504;28;20443;-48
2023/05/07 04:53:43;;;;;;;1.43;1.20;;;17.70;84.00;;;;;;5108466;28;21027;-49
2023/05/07 04:56:12;;;;;;;2.10;1.13;;;17.70;84.00;;;;;;5106435;28;20473;-49
2023/05/07 04:58:43;;;;;;;2.50;1.20;;;17.80;84.00;;;;;;5079205;28;21019;-48
2023/05/07 05:01:12;;;;;;;1.50;1.20;;;17.80;84.20;;;;;;5088595;27;20893;-49
2023/05/07 05:03:43;;;;;;;1.60;1.10;;;17.80;84.10;;;;;;5092679;28;20494;-50
2023/05/07 05:06:12;;;;;;;2.60;1.50;;;17.70;84.20;;;;;;5089976;28;20503;-51
2023/05/07 05:08:40;;;;;;;1.57;1.30;;;17.70;84.20;;;;;;5086031;28;22642;-49
2023/05/07 05:11:10;;;;;;;1.60;1.30;;;17.70;84.10;;;;;;5085320;28;20518;-49
2023/05/07 05:13:39;;;;;;;1.80;1.37;;;17.70;84.20;;;;;;5080154;28;20965;-48
2023/05/07 05:16:18;;;;;;;1.50;1.40;;;17.70;84.20;;;;;;5089387;28;20457;-49
2023/05/07 05:18:48;;;;;;;1.80;1.53;;;17.70;84.20;;;;;;5079940;28;20904;-49
2023/05/07 05:21:19;;;;;;;3.27;1.27;;;17.70;84.20;;;;;;5087633;28;20540;-48
2023/05/07 05:23:50;;;;;;;1.80;1.53;;;17.70;84.20;;;;;;5089667;28;20872;-49
2023/05/07 05:26:22;;;;;;;1.60;1.30;;;17.70;84.20;;;;;;5092806;28;20834;-49
2023/05/07 05:28:50;;;;;;;1.43;1.07;;;17.70;84.20;;;;;;5082396;28;20873;-49
2023/05/07 05:31:22;;;;;;;2.70;1.77;;;17.70;84.30;;;;;;5092720;28;20450;-49
2023/05/07 05:33:53;;;;;;;2.63;1.67;;;17.70;84.50;;;;;;5085773;28;20480;-51
2023/05/07 05:36:22;;;;;;;2.07;1.87;;;17.70;84.30;;;;;;5087516;28;21019;-50
2023/05/07 05:38:52;;;;;;;2.17;1.50;;;17.70;84.40;;;;;;5084003;28;20484;-49
2023/05/07 05:41:22;;;;;;;1.60;1.40;;;17.70;84.50;;;;;;5084934;28;20429;-49
2023/05/07 05:43:51;;;;;;;2.43;1.40;;;17.70;84.60;;;;;;5089589;28;20468;-50
2023/05/07 05:46:20;;;;;;;1.50;1.30;;;17.70;84.50;;;;;;5089235;28;20488;-49
2023/05/07 05:48:52;;;;;;;2.80;1.20;;;17.70;84.50;;;;;;5093337;28;20834;-48
2023/05/07 05:51:22;;;;;;;1.70;1.40;;;17.70;84.50;;;;;;5086648;28;20439;-49
2023/05/07 05:53:50;;;;;;;1.87;1.33;;;17.70;84.60;;;;;;5084147;28;20839;-48
2023/05/07 05:56:21;;;;;;;1.70;1.40;;;17.70;84.70;;;;;;5089294;28;20449;-47
2023/05/07 05:58:49;;;;;;;1.23;0.97;;;17.70;84.70;;;;;;5105736;28;20449;-49
2023/05/07 06:01:19;;;;;;;2.03;1.80;;;17.70;84.60;;;;;;5077603;28;20534;-49
2023/05/07 06:03:50;;;;;;;1.90;1.33;;;17.70;84.70;;;;;;5073801;28;20492;-48
2023/05/07 06:06:20;;;;;;;1.80;1.60;;;17.70;84.70;;;;;;5086451;28;20517;-49
2023/05/07 06:08:48;;;;;;;1.97;1.50;;;17.70;85.00;;;;;;5068848;28;20472;-50
2023/05/07 06:11:22;;;;;;;2.00;1.50;;;17.70;84.80;;;;;;5086015;28;20560;-51
2023/05/07 06:13:51;;;;;;;1.73;1.50;;;17.70;85.10;;;;;;5081880;28;20831;-49
2023/05/07 06:16:19;;;;;;;1.90;1.47;;;17.70;85.30;;;;;;5080998;28;20540;-49
2023/05/07 06:18:48;;;;;;;1.80;1.30;;;17.70;85.20;;;;;;5102081;28;20462;-52
2023/05/07 06:21:17;;;;;;;2.03;1.80;;;17.70;85.20;;;;;;5091563;28;20444;-49
2023/05/07 06:23:47;;;;;;;2.17;1.40;;;17.70;85.30;;;;;;5089465;28;20916;-50
2023/05/07 06:26:15;;;;;;;1.73;1.57;;;17.70;85.20;;;;;;5087006;28;20452;-49
2023/05/07 06:28:47;;;;;;;2.30;1.40;;;17.70;85.30;;;;;;5084610;28;20473;-50
2023/05/07 06:31:20;;;;;;;2.13;1.93;;;17.70;85.20;;;;;;5087440;28;20499;-49
2023/05/07 06:34:02;;;;;;;1.97;1.50;;;17.70;85.30;;;;;;5093549;28;20449;-49
2023/05/07 06:36:37;;;;;;;1.47;1.10;;;17.70;85.40;;;;;;5095761;28;20444;-50
2023/05/07 06:39:17;;;;;;;1.70;1.60;;;17.70;85.30;;;;;;5091086;28;20440;-49
2023/05/07 06:41:45;;;;;;;1.87;1.27;;;17.70;85.50;;;;;;5101382;28;20796;-49
2023/05/07 06:44:24;;;;;;;1.30;1.20;;;17.70;85.50;;;;;;5088198;28;20425;-49
2023/05/07 06:47:21;;;;;;;2.50;1.63;;;17.70;85.30;;;;;;5094832;28;20500;-48
2023/05/07 06:49:53;;;;;;;1.50;1.30;;;17.70;85.10;;;;;;5089960;28;20471;-49
2023/05/07 06:52:25;;;;;;;2.17;1.57;;;17.70;85.20;;;;;;5080059;28;20468;-49
2023/05/07 06:54:56;;;;;;;1.70;1.20;;;17.70;85.40;;;;;;5093160;28;20474;-48
2023/05/07 06:57:26;;;;;;;1.67;1.00;;;17.70;85.40;;;;;;5083825;28;20804;-50
2023/05/07 06:59:54;;;;;;;1.70;1.33;;;17.70;85.40;;;;;;5103389;28;20438;-49
2023/05/07 07:02:23;;;;;;;1.63;1.23;;;17.70;85.60;;;;;;5083261;28;20465;-48
2023/05/07 07:04:51;;;;;;;1.73;1.20;;;17.70;85.20;;;;;;5088599;28;20453;-49
2023/05/07 07:07:20;;;;;;;1.40;1.10;;;17.70;85.40;;;;;;5092496;28;20544;-48
2023/05/07 07:09:52;;;;;;;1.60;1.20;;;17.70;85.20;;;;;;5095730;28;20456;-50
2023/05/07 07:12:22;;;;;;;1.50;1.27;;;17.70;85.00;;;;;;5092426;28;20471;-49
2023/05/07 07:14:50;;;;;;;1.87;0.83;;;17.70;84.90;;;;;;5099089;28;20795;-48
2023/05/07 07:17:19;;;;;;;1.63;1.27;;;17.70;84.90;;;;;;5093026;28;20464;-50
2023/05/07 07:19:48;;;;;;;2.53;1.10;;;17.70;84.60;;;;;;5078429;28;20528;-50
2023/05/07 07:22:17;;;;;;;1.50;1.10;;;17.70;84.60;;;;;;5078558;28;20902;-49
2023/05/07 07:24:46;;;;;;;2.17;1.30;;;17.70;84.60;;;;;;5094872;28;20443;-49
2023/05/07 07:27:17;;;;;;;1.63;1.10;;;17.70;84.70;;;;;;5085359;28;20815;-49
2023/05/07 07:29:46;;;;;;;2.00;1.40;;;17.70;84.70;;;;;;5093922;28;20899;-49
2023/05/07 07:32:15;;;;;;;1.60;1.20;;;17.70;84.70;;;;;;5089741;28;21895;-48
2023/05/07 07:34:44;;;;;;;1.30;1.00;;;17.70;84.70;;;;;;5089417;28;20545;-49
2023/05/07 07:37:13;;;;;;;1.80;1.27;;;17.70;84.70;;;;;;5106586;28;20481;-49
2023/05/07 07:39:42;;;;;;;1.80;1.23;;;17.70;84.60;;;;;;5093947;28;20448;-51
2023/05/07 07:42:12;;;;;;;1.67;0.90;;;17.70;84.60;;;;;;5102175;28;20468;-51
2023/05/07 07:44:40;;;;;;;1.40;1.10;;;17.70;84.90;;;;;;5091990;28;20806;-50
2023/05/07 07:47:12;;;;;;;1.20;0.90;;;17.70;85.10;;;;;;5087306;28;20505;-49
2023/05/07 07:49:42;;;;;;;2.23;1.40;;;17.70;85.00;;;;;;5096447;28;20472;-50
2023/05/07 07:52:11;;;;;;;1.40;1.00;;;17.70;84.90;;;;;;5083171;28;20962;-49
2023/05/07 07:54:41;;;;;;;1.67;1.13;;;17.70;84.70;;;;;;5089455;28;20444;-49
2023/05/07 07:57:09;;;;;;;1.57;1.10;;;17.70;85.00;;;;;;5083837;28;20461;-49
2023/05/07 07:59:38;;;;;;;1.30;0.90;;;17.70;84.80;;;;;;5086563;28;20446;-49
2023/05/07 08:02:07;;;;;;;1.93;0.90;;;17.70;84.80;;;;;;5097965;28;20469;-49
2023/05/07 08:04:38;;;;;;;1.33;0.87;;;17.70;84.80;;;;;;5098770;28;20424;-50
2023/05/07 08:07:08;;;;;;;1.30;1.20;;;17.70;84.70;;;;;;5084979;28;20467;-49
2023/05/07 08:09:41;;;;;;;2.20;1.33;;;17.70;84.80;;;;;;5089745;28;20545;-50
2023/05/07 08:12:10;;;;;;;2.17;1.30;;;17.70;84.80;;;;;;5088531;28;20471;-51
2023/05/07 08:14:40;;;;;;;1.80;1.10;;;17.70;84.80;;;;;;5086644;28;20852;-48
2023/05/07 08:17:10;;;;;;;1.40;0.90;;;17.70;84.70;;;;;;5095683;28;20876;-48
2023/05/07 08:19:40;;;;;;;2.20;1.50;;;17.70;84.80;;;;;;5094548;28;20479;-51
2023/05/07 08:22:12;;;;;;;1.20;1.10;;;17.70;84.70;;;;;;5085164;28;20494;-49
2023/05/07 08:24:41;;;;;;;1.40;1.10;;;17.70;84.70;;;;;;5088021;28;20493;-50
2023/05/07 08:27:10;;;;;;;2.07;1.07;;;17.70;84.70;;;;;;5089276;28;20552;-48
2023/05/07 08:29:40;;;;;;;1.30;0.87;;;17.70;84.60;;;;;;5110626;28;20837;-49
2023/05/07 08:32:09;;;;;;;1.63;1.17;;;17.80;84.70;;;;;;5093805;28;20470;-49
2023/05/07 08:34:37;;;;;;;1.80;1.20;;;17.80;84.70;;;;;;5097482;28;20445;-49
2023/05/07 08:37:08;;;;;;;1.43;0.93;;;17.70;84.60;;;;;;5095078;28;20469;-50
2023/05/07 08:39:37;;;;;;;6.43;2.00;;;17.80;84.70;;;;;;5086531;27;20448;-50
2023/05/07 08:42:15;;;;;;;3.17;1.47;;;17.80;85.50;;;;;;5092584;28;20800;-51
2023/05/07 08:44:47;;;;;;;2.43;1.17;;;17.80;85.40;;;;;;5088679;28;20525;-48
2023/05/07 08:47:19;;;;;;;2.00;1.20;;;17.80;85.10;;;;;;5090291;28;20564;-49
2023/05/07 08:49:51;;;;;;;1.70;1.30;;;17.80;85.10;;;;;;5089757;28;20490;-48
2023/05/07 08:52:23;;;;;;;1.57;1.13;;;17.80;85.10;;;;;;5108654;27;21228;-50
2023/05/07 08:54:52;;;;;;;1.60;1.50;;;17.80;85.20;;;;;;5083728;28;20437;-50
2023/05/07 08:57:21;;;;;;;2.17;1.03;;;17.80;85.20;;;;;;5089359;28;20521;-51
2023/05/07 08:59:50;;;;;;;1.40;1.20;;;17.80;85.20;;;;;;5085295;28;20449;-48
2023/05/07 09:02:19;;;;;;;1.40;1.20;;;17.80;85.20;;;;;;5093869;28;20812;-48
2023/05/07 09:04:48;;;;;;;1.77;1.57;;;17.90;85.40;;;;;;5101934;28;20548;-47
2023/05/07 09:07:17;;;;;;;2.30;1.73;;;18.00;85.20;;;;;;5089182;28;20932;-47
2023/05/07 09:09:48;;;;;;;3.67;3.37;;;18.10;85.60;;;;;;5091686;28;20448;-48
2023/05/07 09:12:17;;;;;;;4.10;3.17;;;18.50;90.60;;;;;;5103968;27;20445;-50
2023/05/07 09:14:46;;;;;;;3.80;2.77;;;18.70;90.20;;;;;;5085955;28;20468;-50
2023/05/07 09:17:16;;;;;;;7.53;2.90;;;18.70;88.80;;;;;;5092098;28;20476;-48
2023/05/07 09:19:46;;;;;;;2.87;2.30;;;18.60;88.10;;;;;;5088587;28;20464;-49
2023/05/07 09:22:16;;;;;;;6.43;3.50;;;18.40;87.30;;;;;;5086571;28;20437;-51
2023/05/07 09:24:55;;;;;;;2.17;1.97;;;18.30;88.40;;;;;;5088966;28;20439;-50
2023/05/07 09:27:27;;;;;;;2.63;2.30;;;18.20;89.00;;;;;;5086938;28;20472;-49
2023/05/07 09:29:57;;;;;;;2.67;2.27;;;18.20;89.20;;;;;;5093431;28;20964;-49
2023/05/07 09:32:27;;;;;;;2.53;2.07;;;18.10;89.10;;;;;;5095835;28;20439;-50
2023/05/07 09:34:55;;;;;;;6.23;3.03;;;18.10;89.20;;;;;;5086723;28;20860;-48
2023/05/07 09:37:27;;;;;;;4.33;1.90;;;18.10;89.20;;;;;;5085703;28;20489;-49
2023/05/07 09:39:57;;;;;;;3.43;2.10;;;18.00;88.90;;;;;;5072982;28;20442;-48
2023/05/07 09:42:28;;;;;;;2.90;1.93;;;18.00;88.90;;;;;;5070188;28;20527;-49
2023/05/07 09:45:00;;;;;;;4.53;1.90;;;18.00;88.80;;;;;;5072219;28;20430;-50
2023/05/07 09:47:39;;;;;;;2.37;1.90;;;17.90;88.50;;;;;;5066218;28;20493;-49
2023/05/07 09:50:11;;;;;;;1.60;1.50;;;17.90;88.40;;;;;;5060355;28;20523;-50
2023/05/07 09:52:42;;;;;;;2.33;2.13;;;18.00;88.50;;;;;;5067853;28;20473;-50
2023/05/07 09:55:13;;;;;;;2.37;2.17;;;17.90;88.40;;;;;;5072674;28;20513;-48
2023/05/07 09:57:44;;;;;;;2.63;1.87;;;17.90;88.30;;;;;;5061408;28;20450;-49
2023/05/07 10:00:15;;;;;;;1.60;1.50;;;17.90;88.20;;;;;;5070822;28;20448;-48
2023/05/07 10:02:51;;;;;;;2.00;1.60;;;17.90;88.20;;;;;;5100164;28;20555;-48
2023/05/07 10:05:28;;;;;;;2.33;1.70;;;17.90;88.00;;;;;;5075481;28;20448;-51
2023/05/07 10:08:00;;;;;;;3.70;1.60;;;17.90;87.90;;;;;;5091844;28;20945;-49
2023/05/07 10:10:35;;;;;;;3.00;1.80;;;17.90;87.90;;;;;;5092425;28;20522;-49
2023/05/07 10:13:10;;;;;;;2.00;1.80;;;17.90;87.80;;;;;;5084985;28;20453;-48
2023/05/07 10:15:42;;;;;;;1.97;1.60;;;17.90;87.70;;;;;;5094735;28;20444;-49
2023/05/07 10:18:13;;;;;;;5.20;1.93;;;17.90;87.80;;;;;;5081293;28;20513;-49
2023/05/07 10:20:45;;;;;;;2.30;2.10;;;18.10;90.10;;;;;;5070450;28;20435;-48
2023/05/07 10:23:19;;;;;;;3.23;1.80;;;18.20;89.40;;;;;;5080482;28;20526;-49
2023/05/07 10:25:50;;;;;;;2.00;1.73;;;18.30;88.90;;;;;;5079906;28;20460;-50
2023/05/07 10:28:28;;;;;;;2.10;1.90;;;18.30;88.20;;;;;;5076618;28;20465;-48
2023/05/07 10:31:06;;;;;;;1.80;1.60;;;18.40;87.80;;;;;;5086079;28;20458;-48
2023/05/07 10:33:42;;;;;;;1.90;1.40;;;18.40;87.40;;;;;;5078474;28;20846;-50
2023/05/07 10:36:12;;;;;;;2.00;1.80;;;18.40;86.80;;;;;;5081296;28;20519;-49
2023/05/07 10:38:41;;;;;;;2.70;1.57;;;18.40;86.70;;;;;;5104186;28;20471;-48
2023/05/07 10:41:12;;;;;;;2.20;1.60;;;18.40;86.60;;;;;;5099805;28;20437;-47
2023/05/07 10:43:45;;;;;;;2.27;2.00;;;18.50;86.60;;;;;;5086222;28;20469;-49
2023/05/07 10:46:24;;;;;;;1.40;1.20;;;18.50;86.20;;;;;;5107762;27;20467;-48
2023/05/07 10:49:16;;;;;;;2.50;1.40;;;18.50;86.20;;;;;;5105627;28;20900;-51
2023/05/07 10:52:17;;;;;;;2.20;1.30;;;18.50;85.90;;;;;;5091517;28;20559;-49
2023/05/07 10:55:22;;;;;;;3.00;1.87;;;18.50;85.80;;;;;;5094639;28;20548;-49
2023/05/07 10:58:28;;;;;;;3.03;1.30;;;18.50;85.70;;;;;;5073988;28;20489;-47
2023/05/07 11:01:54;;;;;;;2.17;1.83;;;18.50;85.70;;;;;;5076668;28;20446;-49
2023/05/07 11:04:37;;;;;;;2.30;1.80;;;18.50;86.20;;;;;;5060848;28;20465;-48
2023/05/07 11:07:27;;;;;;;2.80;2.20;;;18.50;86.30;;;;;;5065122;28;20510;-47
2023/05/07 11:10:14;;;;;;;2.30;2.10;;;18.60;87.70;;;;;;5071417;28;20192;-51
2023/05/07 11:12:59;;;;;;;2.27;1.87;;;18.70;87.30;;;;;;5073766;28;20623;-48
2023/05/07 11:15:48;;;;;;;2.37;2.17;;;18.60;87.30;;;;;;5066405;28;20964;-48
2023/05/07 11:18:47;;;;;;;2.87;1.83;;;18.60;88.40;;;;;;5070663;28;20477;-47
2023/05/07 11:21:35;;;;;;;2.03;1.47;;;18.50;86.90;;;;;;5068782;28;20434;-49
2023/05/07 11:24:21;;;;;;;2.23;1.60;;;18.60;86.90;;;;;;5074104;28;20461;-48
2023/05/07 11:26:56;;;;;;;2.43;1.70;;;18.50;86.80;;;;;;5086314;28;20466;-48
2023/05/07 11:29:27;;;;;;;2.53;1.83;;;18.60;86.70;;;;;;5070739;28;20445;-49
2023/05/07 11:32:02;;;;;;;2.10;1.70;;;18.50;87.00;;;;;;5088957;28;20570;-49
2023/05/07 11:34:37;;;;;;;3.07;1.80;;;18.50;86.60;;;;;;5088464;28;20799;-48
2023/05/07 11:37:07;;;;;;;1.70;1.60;;;18.50;86.50;;;;;;5091143;28;20460;-51
2023/05/07 11:39:54;;;;;;;2.20;1.27;;;18.50;86.40;;;;;;5091040;28;20514;-48
2023/05/07 11:42:33;;;;;;;2.53;1.73;;;18.50;86.30;;;;;;5094240;28;20483;-49
2023/05/07 11:45:02;;;;;;;2.53;2.00;;;18.50;86.30;;;;;;5090983;28;20654;-51
2023/05/07 11:47:33;;;;;;;1.90;1.20;;;18.50;86.30;;;;;;5086680;28;20484;-48
2023/05/07 11:50:05;;;;;;;2.00;1.60;;;18.50;86.30;;;;;;5092497;28;20446;-48
2023/05/07 11:52:38;;;;;;;1.90;1.33;;;18.50;86.30;;;;;;5092744;28;20480;-49
2023/05/07 11:55:09;;;;;;;2.23;1.70;;;18.50;86.20;;;;;;5104900;28;21043;-48
2023/05/07 11:57:37;;;;;;;2.07;1.53;;;18.50;86.20;;;;;;5091245;28;20453;-48
2023/05/07 12:00:07;;;;;;;2.30;1.63;;;18.50;86.20;;;;;;5093310;28;20477;-48
2023/05/07 12:02:46;;;;;;;2.60;1.70;;;18.50;86.30;;;;;;5094236;28;20961;-48
2023/05/07 12:05:18;;;;;;;1.70;1.33;;;18.40;86.30;;;;;;5094113;28;20470;-48
2023/05/07 12:07:47;;;;;;;1.63;1.53;;;18.40;86.30;;;;;;5090641;28;20469;-50
2023/05/07 12:10:16;;;;;;;1.70;1.60;;;18.50;87.30;;;;;;5095412;28;20437;-48
2023/05/07 12:12:47;;;;;;;4.27;1.97;;;18.40;88.10;;;;;;5094773;28;20457;-49
2023/05/07 12:15:17;;;;;;;2.03;1.83;;;18.50;89.20;;;;;;5090932;28;20432;-48
2023/05/07 12:17:48;;;;;;;1.90;1.63;;;18.50;89.20;;;;;;5090689;28;20468;-50
2023/05/07 12:20:19;;;;;;;1.90;1.80;;;18.50;90.20;;;;;;5091039;28;20840;-48
2023/05/07 12:22:51;;;;;;;1.77;1.53;;;18.40;89.70;;;;;;5087911;28;20444;-49
2023/05/07 12:25:20;;;;;;;3.07;1.83;;;18.40;89.70;;;;;;5088849;28;20447;-48
2023/05/07 12:27:53;;;;;;;1.70;1.43;;;18.40;90.00;;;;;;5087081;28;20473;-48
2023/05/07 12:30:21;;;;;;;1.73;1.53;;;18.40;89.50;;;;;;5054675;28;20473;-48
2023/05/07 12:32:54;;;;;;;2.23;1.40;;;18.40;89.00;;;;;;5069771;28;21014;-51
2023/05/07 12:35:28;;;;;;;1.60;1.47;;;18.40;88.30;;;;;;5029907;22;20478;-65
2023/05/07 12:37:58;;;;;;;3.20;1.60;;;18.40;87.70;;;;;;4972409;28;20535;-65
2023/05/07 12:40:37;;;;;;;2.13;1.80;;;18.40;88.70;;;;;;4992723;28;20446;-65
2023/05/07 12:43:05;;;;;;;2.07;1.30;;;18.40;88.40;;;;;;4994351;28;20573;-66
2023/05/07 12:45:39;;;;;;;2.20;1.37;;;18.40;88.00;;;;;;5003869;28;20482;-65
2023/05/07 12:48:11;;;;;;;3.67;1.70;;;18.40;87.40;;;;;;5011144;28;20992;-65
2023/05/07 12:50:40;;;;;;;1.67;1.30;;;18.40;87.30;;;;;;4995790;28;20800;-66
2023/05/07 12:53:10;;;;;;;1.57;1.47;;;18.40;87.10;;;;;;4969330;28;20474;-65
2023/05/07 12:55:43;;;;;;;1.90;1.10;;;18.40;87.30;;;;;;4951973;28;20502;-65
2023/05/07 12:58:18;;;;;;;3.00;1.60;;;18.40;87.20;;;;;;4980431;28;21057;-65
2023/05/07 13:00:49;;;;;;;1.80;1.70;;;18.40;87.40;;;;;;4967183;28;21104;-65
2023/05/07 13:03:28;;;;;;;2.33;1.67;;;18.40;87.50;;;;;;4962208;28;20475;-65
2023/05/07 13:05:58;;;;;;;2.17;1.80;;;18.40;87.20;;;;;;4980130;28;21034;-72
2023/05/07 13:08:28;;;;;;;1.60;1.40;;;18.40;89.30;;;;;;4974941;28;20532;-72
2023/05/07 13:10:58;;;;;;;1.57;1.30;;;18.40;88.80;;;;;;4985144;28;20458;-72